createdAt,value
2023-05-16T00:02:21.860Z,14.82
2023-05-16T00:07:24.652Z,14.72
2023-05-16T00:12:28.574Z,14.65
2023-05-16T00:17:31.406Z,14.66
2023-05-16T00:22:34.677Z,14.94
2023-05-16T00:27:37.316Z,15.04
2023-05-16T00:32:39.998Z,15.25
2023-05-16T00:37:43.320Z,15.42
2023-05-16T00:42:45.847Z,15.79
2023-05-16T00:47:49.102Z,15.92
2023-05-16T00:52:51.948Z,16.04
2023-05-16T00:57:54.406Z,15.97
2023-05-16T01:02:58.060Z,16.06
2023-05-16T01:08:00.999Z,16.04
2023-05-16T01:13:13.743Z,15.94
2023-05-16T01:18:31.507Z,16.10
2023-05-16T01:24:26.829Z,15.81
2023-05-16T01:29:29.511Z,15.77
2023-05-16T01:34:32.255Z,15.64
2023-05-16T01:39:52.235Z,15.59
2023-05-16T01:45:04.010Z,15.61
2023-05-16T01:50:20.029Z,15.63
2023-05-16T01:55:36.177Z,15.56
2023-05-16T02:00:40.177Z,15.30
2023-05-16T02:05:43.308Z,15.48
2023-05-16T02:10:48.788Z,15.46
2023-05-16T02:15:51.662Z,15.39
2023-05-16T02:20:54.553Z,15.44
2023-05-16T02:25:57.240Z,15.24
2023-05-16T02:31:00.777Z,15.17
2023-05-16T02:36:03.967Z,15.16
2023-05-16T02:41:06.165Z,15.12
2023-05-16T02:46:22.077Z,15.09
2023-05-16T02:51:26.745Z,14.99
2023-05-16T02:56:29.829Z,15.04
2023-05-16T03:01:32.112Z,14.88
2023-05-16T03:06:34.654Z,14.76
2023-05-16T03:11:38.045Z,14.88
2023-05-16T03:16:44.242Z,14.96
2023-05-16T03:21:47.964Z,14.96
2023-05-16T03:26:50.450Z,14.86
2023-05-16T03:31:56.125Z,14.84
2023-05-16T03:36:58.803Z,14.99
2023-05-16T03:42:01.476Z,15.04
2023-05-16T03:47:04.712Z,15.01
2023-05-16T03:52:07.664Z,15.07
2023-05-16T03:57:10.381Z,15.04
2023-05-16T04:02:12.998Z,15.04
2023-05-16T04:07:15.470Z,14.99
2023-05-16T04:12:18.166Z,15.06
2023-05-16T04:17:20.943Z,15.15
2023-05-16T04:22:23.637Z,15.10
2023-05-16T04:27:27.215Z,15.34
2023-05-16T04:32:30.425Z,15.40
2023-05-16T04:37:33.137Z,15.26
2023-05-16T04:42:35.924Z,15.41
2023-05-16T04:47:39.162Z,15.07
2023-05-16T04:52:42.403Z,15.31
2023-05-16T04:57:47.146Z,15.39
2023-05-16T05:02:49.863Z,15.40
2023-05-16T05:07:52.928Z,15.78
2023-05-16T05:12:55.567Z,15.70
2023-05-16T05:17:58.361Z,15.93
2023-05-16T05:23:04.982Z,16.04
2023-05-16T05:28:07.289Z,16.02
2023-05-16T05:33:12.016Z,16.40
2023-05-16T05:38:14.863Z,16.36
2023-05-16T05:43:17.700Z,16.58
2023-05-16T05:48:21.053Z,16.75
2023-05-16T05:53:23.865Z,16.84
2023-05-16T05:58:26.498Z,17.28
2023-05-16T06:03:29.113Z,17.04
2023-05-16T06:08:31.964Z,17.21
2023-05-16T06:13:34.700Z,17.46
2023-05-16T06:18:37.395Z,17.41
2023-05-16T06:23:40.079Z,17.60
2023-05-16T06:28:42.882Z,18.30
2023-05-16T06:33:46.195Z,18.51
2023-05-16T06:38:48.896Z,19.82
2023-05-16T06:43:51.951Z,20.43
2023-05-16T06:48:54.711Z,20.83
2023-05-16T06:53:57.248Z,21.12
2023-05-16T06:59:02.019Z,21.16
2023-05-16T07:04:04.876Z,21.38
2023-05-16T07:09:08.451Z,21.40
2023-05-16T07:14:11.214Z,21.14
2023-05-16T07:19:13.488Z,21.15
2023-05-16T07:24:16.157Z,21.14
2023-05-16T07:29:19.110Z,21.95
2023-05-16T07:34:22.183Z,22.57
2023-05-16T07:39:24.934Z,22.64
2023-05-16T07:44:27.573Z,22.82
2023-05-16T07:49:30.339Z,22.83
2023-05-16T07:54:33.727Z,22.79
2023-05-16T07:59:36.537Z,22.78
2023-05-16T08:04:39.793Z,22.70
2023-05-16T08:09:42.589Z,22.60
2023-05-16T08:14:44.781Z,22.64
2023-05-16T08:19:47.549Z,22.90
2023-05-16T08:24:49.741Z,23.08
2023-05-16T08:29:52.615Z,23.17
2023-05-16T08:34:55.444Z,23.12
2023-05-16T08:39:59.137Z,23.55
2023-05-16T08:45:02.060Z,23.28
2023-05-16T08:50:05.280Z,23.25
2023-05-16T08:55:25.436Z,23.36
2023-05-16T09:00:28.847Z,23.43
2023-05-16T09:05:32.442Z,22.93
2023-05-16T09:10:35.180Z,23.18
2023-05-16T09:15:37.912Z,23.20
2023-05-16T09:20:47.306Z,23.45
2023-05-16T09:25:54.017Z,23.36
2023-05-16T09:30:59.588Z,23.39
2023-05-16T09:36:04.297Z,23.81
2023-05-16T09:41:07.124Z,24.22
2023-05-16T09:46:13.134Z,24.66
2023-05-16T09:51:16.578Z,24.71
2023-05-16T09:56:19.493Z,25.01
2023-05-16T10:01:23.173Z,25.25
2023-05-16T10:06:26.838Z,25.47
2023-05-16T10:11:30.400Z,25.51
2023-05-16T10:16:34.500Z,25.36
2023-05-16T10:21:41.086Z,25.96
2023-05-16T10:26:44.094Z,26.33
2023-05-16T10:31:47.729Z,26.51
2023-05-16T10:36:51.202Z,27.02
2023-05-16T10:41:54.452Z,26.54
2023-05-16T10:46:59.206Z,26.26
2023-05-16T10:52:10.598Z,25.88
2023-05-16T10:57:20.243Z,25.89
2023-05-16T11:02:33.284Z,26.25
2023-05-16T11:07:39.446Z,26.68
2023-05-16T11:12:54.129Z,27.37
2023-05-16T11:18:17.541Z,27.53
2023-05-16T11:23:22.249Z,27.51
2023-05-16T11:28:27.139Z,27.64
2023-05-16T11:33:38.526Z,27.34
2023-05-16T11:38:44.162Z,27.58
2023-05-16T11:43:47.128Z,27.69
2023-05-16T11:48:52.686Z,28.08
2023-05-16T11:53:55.613Z,27.13
2023-05-16T11:59:02.040Z,27.48
2023-05-16T12:04:12.919Z,27.67
2023-05-16T12:09:18.389Z,27.61
2023-05-16T12:14:22.026Z,27.41
2023-05-16T12:19:25.347Z,27.16
2023-05-16T12:24:32.552Z,27.08
2023-05-16T12:29:35.276Z,26.92
2023-05-16T12:34:37.541Z,26.62
2023-05-16T12:39:40.241Z,26.81
2023-05-16T12:44:46.150Z,26.29
2023-05-16T12:49:50.384Z,26.07
2023-05-16T12:54:52.812Z,26.24
2023-05-16T12:59:56.257Z,26.00
2023-05-16T13:04:58.974Z,25.92
2023-05-16T13:10:01.684Z,25.71
2023-05-16T13:15:04.668Z,25.85
2023-05-16T13:20:14.054Z,25.47
2023-05-16T13:25:16.938Z,25.00
2023-05-16T13:30:19.737Z,25.16
2023-05-16T13:35:22.622Z,25.01
2023-05-16T13:40:25.252Z,24.58
2023-05-16T13:45:28.360Z,24.54
2023-05-16T13:50:34.081Z,24.38
2023-05-16T13:55:37.474Z,24.01
2023-05-16T14:00:45.096Z,24.08
2023-05-16T14:05:48.788Z,24.18
2023-05-16T14:10:51.817Z,24.17
2023-05-16T14:15:54.037Z,24.09
2023-05-16T14:20:56.820Z,24.00
2023-05-16T14:25:59.493Z,23.75
2023-05-16T14:31:02.909Z,23.87
2023-05-16T14:36:07.813Z,23.79
2023-05-16T14:41:11.305Z,23.84
2023-05-16T14:46:14.345Z,23.77
2023-05-16T14:51:17.428Z,23.66
2023-05-16T14:56:20.419Z,23.43
2023-05-16T15:01:23.159Z,23.47
2023-05-16T15:06:26.173Z,23.53
2023-05-16T15:11:29.585Z,23.21
2023-05-16T15:16:32.329Z,23.28
2023-05-16T15:21:35.075Z,23.27
2023-05-16T15:26:40.136Z,23.12
2023-05-16T15:31:45.395Z,23.17
2023-05-16T15:36:47.891Z,22.95
2023-05-16T15:42:09.125Z,22.89
2023-05-16T15:47:16.615Z,22.84
2023-05-16T15:52:23.185Z,22.85
2023-05-16T15:57:26.389Z,22.88
2023-05-16T16:02:29.256Z,22.47
2023-05-16T16:07:32.026Z,22.46
2023-05-16T16:12:42.362Z,22.20
2023-05-16T16:17:46.627Z,22.21
2023-05-16T16:22:59.643Z,22.04
2023-05-16T16:28:02.638Z,21.92
2023-05-16T16:33:05.176Z,21.82
2023-05-16T16:38:08.070Z,21.69
2023-05-16T16:43:10.947Z,21.50
2023-05-16T16:48:13.834Z,21.41
2023-05-16T16:53:17.107Z,21.16
2023-05-16T16:58:19.882Z,20.84
2023-05-16T17:03:22.250Z,20.78
2023-05-16T17:08:25.069Z,20.58
2023-05-16T17:13:33.898Z,20.30
2023-05-16T17:18:37.176Z,20.33
2023-05-16T17:23:41.729Z,20.20
2023-05-16T17:28:46.927Z,20.23
2023-05-16T17:33:49.498Z,20.14
2023-05-16T17:38:52.156Z,20.08
2023-05-16T17:43:54.867Z,20.18
2023-05-16T17:48:58.210Z,19.93
2023-05-16T17:54:03.252Z,19.92
2023-05-16T17:59:06.163Z,20.04
2023-05-16T18:04:09.633Z,19.96
2023-05-16T18:09:15.232Z,20.12
2023-05-16T18:14:18.027Z,20.13
2023-05-16T18:19:20.453Z,20.10
2023-05-16T18:24:23.179Z,20.18
2023-05-16T18:29:26.007Z,20.15
2023-05-16T18:34:28.772Z,20.20
2023-05-16T18:39:32.123Z,20.02
2023-05-16T18:44:35.196Z,20.05
2023-05-16T18:49:41.040Z,20.12
2023-05-16T18:54:44.022Z,19.94
2023-05-16T18:59:46.832Z,20.07
2023-05-16T19:04:49.700Z,19.86
2023-05-16T19:09:52.538Z,19.90
2023-05-16T19:14:55.046Z,19.89
2023-05-16T19:19:58.390Z,19.84
2023-05-16T19:25:01.060Z,19.69
2023-05-16T19:30:04.261Z,19.64
2023-05-16T19:35:07.773Z,19.43
2023-05-16T19:40:10.292Z,19.33
2023-05-16T19:45:13.069Z,19.43
2023-05-16T19:50:16.148Z,18.94
2023-05-16T19:55:19.208Z,18.92
2023-05-16T20:00:22.112Z,19.05
2023-05-16T20:05:25.108Z,19.04
2023-05-16T20:10:28.047Z,18.87
2023-05-16T20:15:30.814Z,18.96
2023-05-16T20:20:42.302Z,18.84
2023-05-16T20:25:45.046Z,18.59
2023-05-16T20:30:47.800Z,18.67
2023-05-16T20:35:50.834Z,18.61
2023-05-16T20:40:53.489Z,18.53
2023-05-16T20:45:58.674Z,18.50
2023-05-16T20:51:01.922Z,18.62
2023-05-16T20:56:04.483Z,18.63
2023-05-16T21:01:07.274Z,18.56
2023-05-16T21:06:10.210Z,18.44
2023-05-16T21:11:12.971Z,16.65
2023-05-16T21:16:16.192Z,14.77
2023-05-16T21:21:18.874Z,13.75
2023-05-16T21:26:21.954Z,13.29
2023-05-16T21:31:24.692Z,12.80
2023-05-16T21:36:27.056Z,12.55
2023-05-16T21:41:29.936Z,12.42
2023-05-16T21:46:32.554Z,12.53
2023-05-16T21:51:35.276Z,12.69
2023-05-16T21:56:37.542Z,12.52
2023-05-16T22:01:40.169Z,12.69
2023-05-16T22:06:42.913Z,12.85
2023-05-16T22:11:45.727Z,13.45
2023-05-16T22:16:48.070Z,13.38
2023-05-16T22:21:50.731Z,13.14
2023-05-16T22:26:52.955Z,12.95
2023-05-16T22:31:55.892Z,12.72
2023-05-16T22:36:58.267Z,12.64
2023-05-16T22:42:04.054Z,12.82
2023-05-16T22:47:07.150Z,12.57
2023-05-16T22:52:09.934Z,12.48
2023-05-16T22:57:12.341Z,12.49
2023-05-16T23:02:15.033Z,12.53
2023-05-16T23:07:17.909Z,12.77
2023-05-16T23:12:21.597Z,12.77
2023-05-16T23:17:24.642Z,12.87
2023-05-16T23:22:26.919Z,12.89
2023-05-16T23:27:29.623Z,12.94
2023-05-16T23:32:32.359Z,13.01
2023-05-16T23:37:35.199Z,13.03
2023-05-16T23:42:37.925Z,13.08
2023-05-16T23:47:40.338Z,12.93
2023-05-16T23:52:43.107Z,13.08
2023-05-16T23:57:46.204Z,12.82
